createdAt,value
2023-05-25T00:00:15.896Z,99827.94
2023-05-25T00:01:18.293Z,99819.13
2023-05-25T00:02:20.691Z,99823.19
2023-05-25T00:03:23.033Z,99822.38
2023-05-25T00:04:27.258Z,99827.25
2023-05-25T00:05:29.792Z,99829.19
2023-05-25T00:06:33.113Z,99829.94
2023-05-25T00:07:35.343Z,99829.88
2023-05-25T00:08:40.349Z,99823.72
2023-05-25T00:09:46.561Z,99829.81
2023-05-25T00:10:48.996Z,99833.59
2023-05-25T00:11:52.360Z,99833.28
2023-05-25T00:12:56.932Z,99830.47
2023-05-25T00:13:59.148Z,99820.06
2023-05-25T00:15:01.368Z,99829.00
2023-05-25T00:16:03.796Z,99833.47
2023-05-25T00:17:06.044Z,99828.22
2023-05-25T00:18:08.353Z,99827.50
2023-05-25T00:19:11.104Z,99832.88
2023-05-25T00:20:14.777Z,99824.34
2023-05-25T00:21:18.111Z,99825.28
2023-05-25T00:22:20.461Z,99820.66
2023-05-25T00:23:22.707Z,99820.44
2023-05-25T00:24:25.043Z,99824.88
2023-05-25T00:25:27.267Z,99820.34
2023-05-25T00:26:29.457Z,99814.38
2023-05-25T00:27:32.022Z,99811.88
2023-05-25T00:28:34.289Z,99810.06
2023-05-25T00:29:36.488Z,99810.88
2023-05-25T00:30:39.214Z,99802.91
2023-05-25T00:31:41.874Z,99805.38
2023-05-25T00:32:44.132Z,99809.72
2023-05-25T00:33:46.422Z,99802.81
2023-05-25T00:34:48.728Z,99807.06
2023-05-25T00:35:54.052Z,99802.75
2023-05-25T00:36:56.802Z,99804.63
2023-05-25T00:37:59.128Z,99807.25
2023-05-25T00:39:01.310Z,99811.66
2023-05-25T00:40:04.603Z,99816.69
2023-05-25T00:41:06.854Z,99811.25
2023-05-25T00:42:09.102Z,99815.91
2023-05-25T00:43:12.989Z,99819.53
2023-05-25T00:44:16.634Z,99820.38
2023-05-25T00:45:20.705Z,99815.78
2023-05-25T00:46:24.110Z,99808.88
2023-05-25T00:47:27.302Z,99811.53
2023-05-25T00:48:29.556Z,99809.91
2023-05-25T00:49:35.374Z,99808.06
2023-05-25T00:50:43.375Z,99809.63
2023-05-25T00:51:46.718Z,99816.84
2023-05-25T00:52:49.922Z,99822.94
2023-05-25T00:53:52.285Z,99816.63
2023-05-25T00:55:00.694Z,99822.81
2023-05-25T00:56:23.107Z,99816.84
2023-05-25T00:57:28.088Z,99821.13
2023-05-25T00:58:33.331Z,99811.25
2023-05-25T00:59:41.247Z,99817.16
2023-05-25T01:00:46.114Z,99816.44
2023-05-25T01:01:49.436Z,99816.56
2023-05-25T01:02:56.437Z,99809.03
2023-05-25T01:03:59.779Z,99822.13
2023-05-25T01:05:06.341Z,99815.97
2023-05-25T01:06:14.129Z,99829.91
2023-05-25T01:07:19.998Z,99816.00
2023-05-25T01:08:24.327Z,99832.78
2023-05-25T01:09:29.015Z,99822.59
2023-05-25T01:10:33.557Z,99831.22
2023-05-25T01:11:37.087Z,99827.94
2023-05-25T01:12:42.088Z,99829.78
2023-05-25T01:13:45.024Z,99821.22
2023-05-25T01:14:48.462Z,99824.59
2023-05-25T01:15:51.315Z,99832.94
2023-05-25T01:16:55.463Z,99827.88
2023-05-25T01:17:59.401Z,99831.50
2023-05-25T01:19:04.700Z,99830.50
2023-05-25T01:20:11.322Z,99822.72
2023-05-25T01:21:31.582Z,99827.22
2023-05-25T01:22:42.561Z,99831.59
2023-05-25T01:23:52.745Z,99835.81
2023-05-25T01:25:02.059Z,99825.47
2023-05-25T01:26:12.938Z,99828.16
2023-05-25T01:27:36.107Z,99827.28
2023-05-25T01:28:42.598Z,99820.41
2023-05-25T01:29:46.630Z,99819.56
2023-05-25T01:30:50.284Z,99819.50
2023-05-25T01:31:54.303Z,99814.22
2023-05-25T01:32:56.883Z,99820.22
2023-05-25T01:33:59.481Z,99820.22
2023-05-25T01:35:03.928Z,99817.63
2023-05-25T01:36:06.337Z,99829.72
2023-05-25T01:37:08.863Z,99826.50
2023-05-25T01:38:12.139Z,99823.28
2023-05-25T01:39:15.673Z,99822.94
2023-05-25T01:40:18.033Z,99824.09
2023-05-25T01:41:20.190Z,99817.94
2023-05-25T01:42:22.546Z,99818.19
2023-05-25T01:43:25.476Z,99816.41
2023-05-25T01:44:28.750Z,99820.72
2023-05-25T01:45:32.867Z,99818.25
2023-05-25T01:46:40.118Z,99817.47
2023-05-25T01:48:03.459Z,99817.53
2023-05-25T01:49:31.740Z,99823.75
2023-05-25T01:50:45.369Z,99821.91
2023-05-25T01:51:56.801Z,99816.53
2023-05-25T01:53:11.898Z,99826.19
2023-05-25T01:54:20.069Z,99828.88
2023-05-25T01:55:26.860Z,99822.94
2023-05-25T01:56:30.831Z,99824.56
2023-05-25T01:57:36.363Z,99827.22
2023-05-25T01:58:46.977Z,99828.00
2023-05-25T01:59:52.510Z,99821.09
2023-05-25T02:02:09.741Z,99820.31
2023-05-25T02:03:12.460Z,99825.63
2023-05-25T02:04:17.350Z,99821.25
2023-05-25T02:05:22.242Z,99814.25
2023-05-25T02:06:24.419Z,99817.75
2023-05-25T02:07:26.596Z,99819.47
2023-05-25T02:08:28.862Z,99820.19
2023-05-25T02:09:31.195Z,99821.94
2023-05-25T02:10:33.393Z,99816.69
2023-05-25T02:11:35.578Z,99823.38
2023-05-25T02:12:37.789Z,99819.03
2023-05-25T02:13:40.719Z,99824.97
2023-05-25T02:14:43.442Z,99820.66
2023-05-25T02:15:46.147Z,99813.78
2023-05-25T02:16:48.612Z,99814.56
2023-05-25T02:17:51.400Z,99807.69
2023-05-25T02:18:53.910Z,99819.19
2023-05-25T02:19:58.006Z,99812.94
2023-05-25T02:21:00.398Z,99809.28
2023-05-25T02:22:02.644Z,99810.03
2023-05-25T02:23:04.904Z,99817.69
2023-05-25T02:24:09.388Z,99810.69
2023-05-25T02:25:11.671Z,99811.63
2023-05-25T02:26:13.832Z,99811.63
2023-05-25T02:27:16.209Z,99809.97
2023-05-25T02:28:19.400Z,99808.31
2023-05-25T02:29:21.725Z,99809.28
2023-05-25T02:30:24.029Z,99804.50
2023-05-25T02:31:32.739Z,99807.88
2023-05-25T02:32:35.913Z,99812.22
2023-05-25T02:33:38.173Z,99810.50
2023-05-25T02:34:41.113Z,99799.13
2023-05-25T02:35:43.576Z,99804.28
2023-05-25T02:36:46.558Z,99805.97
2023-05-25T02:37:50.924Z,99809.28
2023-05-25T02:38:53.406Z,99809.25
2023-05-25T02:39:55.729Z,99808.31
2023-05-25T02:40:58.361Z,99810.88
2023-05-25T02:42:01.363Z,99805.66
2023-05-25T02:43:03.596Z,99809.28
2023-05-25T02:44:06.430Z,99805.72
2023-05-25T02:45:12.916Z,99810.28
2023-05-25T02:46:16.628Z,99815.81
2023-05-25T02:47:19.222Z,99813.50
2023-05-25T02:48:22.055Z,99805.69
2023-05-25T02:49:24.291Z,99815.41
2023-05-25T02:50:26.488Z,99805.97
2023-05-25T02:51:33.540Z,99808.81
2023-05-25T02:52:35.932Z,99802.53
2023-05-25T02:53:38.318Z,99809.41
2023-05-25T02:54:41.592Z,99814.44
2023-05-25T02:55:45.015Z,99806.22
2023-05-25T02:56:52.753Z,99812.91
2023-05-25T02:57:55.033Z,99815.22
2023-05-25T02:59:19.593Z,99822.97
2023-05-25T03:00:22.064Z,99809.69
2023-05-25T03:01:25.393Z,99816.50
2023-05-25T03:02:30.864Z,99816.28
2023-05-25T03:03:33.096Z,99808.53
2023-05-25T03:04:37.802Z,99811.88
2023-05-25T03:05:40.487Z,99809.00
2023-05-25T03:06:43.254Z,99813.31
2023-05-25T03:07:49.741Z,99806.34
2023-05-25T03:08:51.988Z,99810.59
2023-05-25T03:09:54.351Z,99806.25
2023-05-25T03:10:57.698Z,99808.88
2023-05-25T03:12:00.038Z,99814.22
2023-05-25T03:13:02.409Z,99816.31
2023-05-25T03:14:04.682Z,99815.06
2023-05-25T03:15:09.290Z,99817.50
2023-05-25T03:16:12.549Z,99819.19
2023-05-25T03:17:14.889Z,99816.53
2023-05-25T03:18:18.523Z,99822.66
2023-05-25T03:19:20.909Z,99825.34
2023-05-25T03:20:24.611Z,99826.25
2023-05-25T03:21:27.685Z,99825.56
2023-05-25T03:22:29.966Z,99829.75
2023-05-25T03:23:32.181Z,99832.19
2023-05-25T03:24:34.679Z,99829.47
2023-05-25T03:25:38.685Z,99832.97
2023-05-25T03:26:40.950Z,99835.66
2023-05-25T03:27:43.153Z,99828.53
2023-05-25T03:28:45.365Z,99833.78
2023-05-25T03:29:50.970Z,99834.44
2023-05-25T03:30:53.280Z,99836.91
2023-05-25T03:31:55.581Z,99830.97
2023-05-25T03:33:01.138Z,99839.84
2023-05-25T03:34:08.782Z,99841.69
2023-05-25T03:35:12.843Z,99846.97
2023-05-25T03:36:17.239Z,99845.31
2023-05-25T03:37:19.510Z,99838.34
2023-05-25T03:38:22.168Z,99841.94
2023-05-25T03:39:24.372Z,99845.28
2023-05-25T03:40:28.180Z,99842.59
2023-05-25T03:41:30.799Z,99843.38
2023-05-25T03:42:33.266Z,99829.47
2023-05-25T03:43:36.441Z,99842.44
2023-05-25T03:44:41.439Z,99845.69
2023-05-25T03:45:44.533Z,99848.13
2023-05-25T03:46:46.960Z,99845.25
2023-05-25T03:47:50.006Z,99849.44
2023-05-25T03:48:52.328Z,99842.31
2023-05-25T03:49:54.593Z,99846.66
2023-05-25T03:50:56.782Z,99846.72
2023-05-25T03:52:01.586Z,99847.56
2023-05-25T03:53:03.816Z,99833.50
2023-05-25T03:54:06.090Z,99841.69
2023-05-25T03:55:08.641Z,99845.81
2023-05-25T03:56:10.909Z,99843.72
2023-05-25T03:57:13.191Z,99850.13
2023-05-25T03:58:16.015Z,99846.47
2023-05-25T03:59:18.717Z,99851.31
2023-05-25T04:00:22.590Z,99855.34
2023-05-25T04:01:26.519Z,99858.44
2023-05-25T04:02:28.831Z,99858.16
2023-05-25T04:03:32.717Z,99860.75
2023-05-25T04:04:35.729Z,99851.03
2023-05-25T04:05:38.524Z,99856.09
2023-05-25T04:06:42.616Z,99851.28
2023-05-25T04:07:46.017Z,99853.03
2023-05-25T04:08:48.211Z,99851.75
2023-05-25T04:09:50.420Z,99858.28
2023-05-25T04:10:52.974Z,99860.13
2023-05-25T04:11:56.224Z,99855.84
2023-05-25T04:12:59.773Z,99858.94
2023-05-25T04:14:02.172Z,99866.03
2023-05-25T04:15:09.226Z,99864.56
2023-05-25T04:16:22.211Z,99851.47
2023-05-25T04:17:25.339Z,99851.50
2023-05-25T04:18:28.219Z,99843.38
2023-05-25T04:19:30.427Z,99855.03
2023-05-25T04:20:32.688Z,99849.47
2023-05-25T04:21:36.153Z,99851.44
2023-05-25T04:22:41.295Z,99853.97
2023-05-25T04:23:43.535Z,99854.31
2023-05-25T04:24:46.438Z,99849.09
2023-05-25T04:25:51.115Z,99850.00
2023-05-25T04:26:53.488Z,99850.34
2023-05-25T04:27:56.691Z,99843.28
2023-05-25T04:29:18.473Z,99850.81
2023-05-25T04:30:31.480Z,99849.69
2023-05-25T04:32:02.637Z,99849.59
2023-05-25T04:33:05.027Z,99844.03
2023-05-25T04:34:23.258Z,99844.28
2023-05-25T04:35:36.671Z,99840.78
2023-05-25T04:36:42.515Z,99843.50
2023-05-25T04:37:47.098Z,99845.16
2023-05-25T04:38:52.093Z,99849.44
2023-05-25T04:39:54.527Z,99856.66
2023-05-25T04:40:57.731Z,99857.28
2023-05-25T04:42:04.300Z,99850.75
2023-05-25T04:43:06.701Z,99859.72
2023-05-25T04:44:10.351Z,99852.78
2023-05-25T04:45:21.485Z,99851.78
2023-05-25T04:46:24.097Z,99868.69
2023-05-25T04:47:26.446Z,99862.75
2023-05-25T04:48:32.463Z,99850.91
2023-05-25T04:49:34.698Z,99860.25
2023-05-25T04:50:40.028Z,99860.88
2023-05-25T04:51:42.334Z,99858.22
2023-05-25T04:52:44.871Z,99851.78
2023-05-25T04:53:47.152Z,99863.91
2023-05-25T04:54:49.491Z,99864.09
2023-05-25T04:55:52.378Z,99870.34
2023-05-25T04:56:54.628Z,99862.47
2023-05-25T04:57:56.862Z,99855.44
2023-05-25T04:58:59.254Z,99856.69
2023-05-25T05:00:01.753Z,99856.22
2023-05-25T05:01:05.005Z,99855.69
2023-05-25T05:02:08.600Z,99847.28
2023-05-25T05:03:11.217Z,99853.38
2023-05-25T05:04:15.271Z,99860.94
2023-05-25T05:05:18.346Z,99862.72
2023-05-25T05:06:21.603Z,99865.59
2023-05-25T05:07:23.919Z,99861.19
2023-05-25T05:08:26.139Z,99866.41
2023-05-25T05:09:28.689Z,99860.75
2023-05-25T05:10:33.068Z,99860.47
2023-05-25T05:11:36.391Z,99867.16
2023-05-25T05:12:39.912Z,99852.25
2023-05-25T05:13:42.194Z,99858.38
2023-05-25T05:14:44.419Z,99855.88
2023-05-25T05:15:46.890Z,99859.63
2023-05-25T05:16:49.232Z,99859.72
2023-05-25T05:17:51.557Z,99857.75
2023-05-25T05:18:55.095Z,99864.69
2023-05-25T05:19:57.535Z,99867.38
2023-05-25T05:20:59.989Z,99862.25
2023-05-25T05:22:04.906Z,99867.69
2023-05-25T05:23:07.939Z,99864.66
2023-05-25T05:24:10.243Z,99861.78
2023-05-25T05:25:12.433Z,99875.16
2023-05-25T05:26:15.261Z,99882.88
2023-05-25T05:27:17.784Z,99869.47
2023-05-25T05:28:28.409Z,99863.59
2023-05-25T05:29:30.736Z,99872.22
2023-05-25T05:30:33.325Z,99867.69
2023-05-25T05:31:36.683Z,99863.63
2023-05-25T05:32:39.059Z,99867.38
2023-05-25T05:33:43.414Z,99873.09
2023-05-25T05:34:45.783Z,99859.78
2023-05-25T05:36:09.861Z,99873.00
2023-05-25T05:37:12.755Z,99873.75
2023-05-25T05:38:15.017Z,99871.09
2023-05-25T05:39:17.959Z,99878.94
2023-05-25T05:40:20.514Z,99880.38
2023-05-25T05:41:23.394Z,99882.16
2023-05-25T05:42:26.402Z,99892.47
2023-05-25T05:43:28.811Z,99896.66
2023-05-25T05:44:31.192Z,99890.66
2023-05-25T05:45:33.423Z,99889.13
2023-05-25T05:46:36.257Z,99888.06
2023-05-25T05:47:38.725Z,99892.16
2023-05-25T05:48:41.765Z,99902.50
2023-05-25T05:49:44.005Z,99897.38
2023-05-25T05:50:46.492Z,99896.22
2023-05-25T05:51:49.158Z,99905.44
2023-05-25T05:52:53.356Z,99906.06
2023-05-25T05:53:55.710Z,99919.16
2023-05-25T05:54:57.912Z,99895.28
2023-05-25T05:56:00.298Z,99914.59
2023-05-25T05:57:03.348Z,99914.38
2023-05-25T05:58:05.513Z,99905.81
2023-05-25T05:59:08.412Z,99930.63
2023-05-25T06:00:11.443Z,99925.13
2023-05-25T06:01:21.905Z,99913.69
2023-05-25T06:02:24.490Z,99916.88
2023-05-25T06:03:29.988Z,99914.59
2023-05-25T06:04:32.633Z,99909.53
2023-05-25T06:05:34.859Z,99916.44
2023-05-25T06:06:37.692Z,99919.38
2023-05-25T06:07:40.403Z,99916.06
2023-05-25T06:08:43.333Z,99910.06
2023-05-25T06:09:45.916Z,99911.13
2023-05-25T06:10:49.156Z,99903.72
2023-05-25T06:11:51.416Z,99905.25
2023-05-25T06:12:54.055Z,99907.53
2023-05-25T06:13:56.824Z,99913.03
2023-05-25T06:15:00.069Z,99909.53
2023-05-25T06:16:02.918Z,99901.56
2023-05-25T06:17:06.060Z,99910.25
2023-05-25T06:18:08.524Z,99910.06
2023-05-25T06:19:11.466Z,99919.38
2023-05-25T06:20:15.049Z,99920.34
2023-05-25T06:21:18.266Z,99916.81
2023-05-25T06:22:20.464Z,99930.44
2023-05-25T06:23:22.686Z,99928.13
2023-05-25T06:24:24.950Z,99932.97
2023-05-25T06:25:27.172Z,99933.00
2023-05-25T06:26:31.794Z,99930.09
2023-05-25T06:27:34.020Z,99934.44
2023-05-25T06:28:37.218Z,99937.59
2023-05-25T06:29:39.895Z,99935.97
2023-05-25T06:30:42.324Z,99926.81
2023-05-25T06:31:44.769Z,99930.88
2023-05-25T06:32:47.117Z,99943.97
2023-05-25T06:33:49.381Z,99938.50
2023-05-25T06:34:51.599Z,99931.78
2023-05-25T06:36:00.264Z,99938.63
2023-05-25T06:37:02.758Z,99930.84
2023-05-25T06:38:05.037Z,99931.78
2023-05-25T06:39:07.311Z,99928.72
2023-05-25T06:40:10.382Z,99932.66
2023-05-25T06:41:15.164Z,99932.81
2023-05-25T06:42:18.477Z,99931.94
2023-05-25T06:43:28.562Z,99916.72
2023-05-25T06:44:51.692Z,99928.09
2023-05-25T06:45:53.934Z,99936.22
2023-05-25T06:46:56.281Z,99929.50
2023-05-25T06:47:58.553Z,99930.13
2023-05-25T06:49:02.053Z,99933.69
2023-05-25T06:50:04.891Z,99934.44
2023-05-25T06:51:07.187Z,99928.28
2023-05-25T06:52:09.446Z,99938.28
2023-05-25T06:53:12.358Z,99939.44
2023-05-25T06:54:15.265Z,99958.53
2023-05-25T06:55:17.501Z,99956.38
2023-05-25T06:56:19.884Z,99960.81
2023-05-25T06:57:22.670Z,99951.78
2023-05-25T06:58:24.865Z,99939.44
2023-05-25T06:59:27.129Z,99948.63
2023-05-25T07:00:29.403Z,99943.47
2023-05-25T07:01:31.732Z,99938.50
2023-05-25T07:02:34.868Z,99929.47
2023-05-25T07:03:38.608Z,99929.63
2023-05-25T07:04:41.264Z,99922.63
2023-05-25T07:05:43.759Z,99925.47
2023-05-25T07:06:48.207Z,99928.03
2023-05-25T07:07:50.629Z,99919.59
2023-05-25T07:08:52.959Z,99919.13
2023-05-25T07:09:55.166Z,99934.41
2023-05-25T07:10:57.506Z,99923.34
2023-05-25T07:11:59.713Z,99932.84
2023-05-25T07:13:01.963Z,99921.25
2023-05-25T07:14:04.236Z,99920.19
2023-05-25T07:15:07.141Z,99930.13
2023-05-25T07:16:09.392Z,99923.78
2023-05-25T07:17:12.434Z,99934.44
2023-05-25T07:18:15.215Z,99926.81
2023-05-25T07:19:17.534Z,99941.38
2023-05-25T07:20:22.060Z,99935.94
2023-05-25T07:21:24.938Z,99928.28
2023-05-25T07:22:27.268Z,99930.16
2023-05-25T07:23:29.485Z,99935.69
2023-05-25T07:24:31.737Z,99930.41
2023-05-25T07:25:33.932Z,99941.00
2023-05-25T07:26:37.156Z,99934.00
2023-05-25T07:27:40.101Z,99949.53
2023-05-25T07:28:42.287Z,99938.25
2023-05-25T07:29:44.463Z,99951.06
2023-05-25T07:30:46.700Z,99942.03
2023-05-25T07:31:49.098Z,99936.38
2023-05-25T07:32:51.470Z,99940.53
2023-05-25T07:33:55.466Z,99942.75
2023-05-25T07:34:57.750Z,99938.31
2023-05-25T07:36:00.005Z,99945.63
2023-05-25T07:37:02.393Z,99939.78
2023-05-25T07:38:05.074Z,99928.47
2023-05-25T07:39:08.505Z,99939.50
2023-05-25T07:40:11.092Z,99926.25
2023-05-25T07:41:13.701Z,99941.50
2023-05-25T07:42:20.736Z,99930.03
2023-05-25T07:43:23.000Z,99936.63
2023-05-25T07:44:25.339Z,99945.56
2023-05-25T07:45:27.591Z,99933.50
2023-05-25T07:46:29.939Z,99938.19
2023-05-25T07:47:32.231Z,99945.56
2023-05-25T07:48:34.519Z,99936.09
2023-05-25T07:49:36.689Z,99938.81
2023-05-25T07:50:38.962Z,99930.56
2023-05-25T07:51:41.883Z,99939.41
2023-05-25T07:52:44.250Z,99941.44
2023-05-25T07:53:46.514Z,99947.84
2023-05-25T07:54:48.716Z,99946.38
2023-05-25T07:55:50.980Z,99945.00
2023-05-25T07:56:53.192Z,99946.94
2023-05-25T07:57:55.599Z,99935.69
2023-05-25T07:58:59.916Z,99934.38
2023-05-25T08:00:02.234Z,99934.19
2023-05-25T08:01:05.225Z,99939.69
2023-05-25T08:02:07.575Z,99931.22
2023-05-25T08:03:10.865Z,99943.91
2023-05-25T08:04:13.465Z,99927.22
2023-05-25T08:05:16.089Z,99934.44
2023-05-25T08:06:18.696Z,99933.66
2023-05-25T08:07:20.991Z,99940.22
2023-05-25T08:08:24.736Z,99943.41
2023-05-25T08:09:26.983Z,99944.09
2023-05-25T08:10:32.193Z,99939.59
2023-05-25T08:11:34.455Z,99937.56
2023-05-25T08:12:47.895Z,99947.03
2023-05-25T08:13:51.470Z,99946.75
2023-05-25T08:14:55.543Z,99938.38
2023-05-25T08:15:58.272Z,99938.22
2023-05-25T08:17:00.603Z,99934.38
2023-05-25T08:18:04.513Z,99934.31
2023-05-25T08:19:06.950Z,99940.13
2023-05-25T08:20:10.185Z,99932.56
2023-05-25T08:21:13.480Z,99932.53
2023-05-25T08:22:15.953Z,99943.06
2023-05-25T08:23:18.143Z,99941.50
2023-05-25T08:24:20.341Z,99941.03
2023-05-25T08:25:22.614Z,99931.41
2023-05-25T08:26:38.357Z,99940.16
2023-05-25T08:27:47.593Z,99937.78
2023-05-25T08:28:49.899Z,99933.03
2023-05-25T08:29:52.559Z,99931.25
2023-05-25T08:30:55.117Z,99934.41
2023-05-25T08:31:57.924Z,99937.22
2023-05-25T08:33:00.939Z,99933.44
2023-05-25T08:34:03.336Z,99927.97
2023-05-25T08:35:06.030Z,99939.44
2023-05-25T08:36:09.448Z,99946.72
2023-05-25T08:37:12.040Z,99937.09
2023-05-25T08:38:14.702Z,99945.00
2023-05-25T08:39:17.308Z,99947.41
2023-05-25T08:40:22.786Z,99938.00
2023-05-25T08:41:25.012Z,99937.13
2023-05-25T08:42:27.282Z,99933.53
2023-05-25T08:43:29.739Z,99942.94
2023-05-25T08:44:32.246Z,99941.16
2023-05-25T08:45:36.747Z,99941.25
2023-05-25T08:46:40.960Z,99947.03
2023-05-25T08:47:44.678Z,99940.31
2023-05-25T08:48:50.582Z,99937.72
2023-05-25T08:49:55.314Z,99939.75
2023-05-25T08:51:01.789Z,99948.13
2023-05-25T08:52:05.863Z,99946.59
2023-05-25T08:53:11.633Z,99949.69
2023-05-25T08:54:16.273Z,99952.63
2023-05-25T08:55:23.654Z,99945.06
2023-05-25T08:56:30.130Z,99944.94
2023-05-25T08:57:45.907Z,99947.06
2023-05-25T08:58:57.827Z,99945.25
2023-05-25T09:00:10.784Z,99942.38
2023-05-25T09:01:18.278Z,99940.63
2023-05-25T09:02:49.886Z,99939.44
2023-05-25T09:03:53.901Z,99937.81
2023-05-25T09:04:56.379Z,99942.34
2023-05-25T09:05:59.850Z,99943.13
2023-05-25T09:07:10.212Z,99937.81
2023-05-25T09:08:17.910Z,99930.47
2023-05-25T09:09:20.870Z,99943.59
2023-05-25T09:10:26.334Z,99945.19
2023-05-25T09:11:38.888Z,99937.41
2023-05-25T09:12:43.202Z,99941.13
2023-05-25T09:13:46.214Z,99933.44
2023-05-25T09:14:48.728Z,99936.91
2023-05-25T09:15:52.929Z,99929.25
2023-05-25T09:16:55.344Z,99934.03
2023-05-25T09:17:58.332Z,99942.94
2023-05-25T09:19:01.296Z,99936.41
2023-05-25T09:20:04.749Z,99939.16
2023-05-25T09:21:07.322Z,99944.72
2023-05-25T09:22:16.772Z,99934.66
2023-05-25T09:23:19.417Z,99944.75
2023-05-25T09:24:22.315Z,99933.66
2023-05-25T09:25:27.490Z,99929.41
2023-05-25T09:26:29.937Z,99925.50
2023-05-25T09:27:35.850Z,99930.91
2023-05-25T09:28:46.827Z,99929.84
2023-05-25T09:29:51.416Z,99933.31
2023-05-25T09:30:54.349Z,99929.94
2023-05-25T09:31:56.918Z,99930.63
2023-05-25T09:33:17.397Z,99930.03
2023-05-25T09:34:20.121Z,99927.94
2023-05-25T09:35:23.704Z,99933.72
2023-05-25T09:36:26.747Z,99932.94
2023-05-25T09:37:29.820Z,99945.06
2023-05-25T09:38:33.442Z,99945.06
2023-05-25T09:39:36.295Z,99922.31
2023-05-25T09:40:39.012Z,99930.06
2023-05-25T09:41:41.834Z,99926.25
2023-05-25T09:42:46.686Z,99923.41
2023-05-25T09:44:59.000Z,99932.22
2023-05-25T09:46:01.310Z,99931.19
2023-05-25T09:47:04.692Z,99930.34
2023-05-25T09:48:07.850Z,99922.78
2023-05-25T09:49:10.710Z,99932.16
2023-05-25T09:50:13.000Z,99920.53
2023-05-25T09:51:15.577Z,99924.84
2023-05-25T09:52:17.919Z,99918.19
2023-05-25T09:53:20.609Z,99917.88
2023-05-25T09:54:23.343Z,99920.03
2023-05-25T09:55:36.806Z,99923.84
2023-05-25T09:56:46.530Z,99925.53
2023-05-25T09:57:53.400Z,99929.97
2023-05-25T09:58:56.902Z,99932.22
2023-05-25T09:59:59.800Z,99920.34
2023-05-25T10:01:02.049Z,99922.97
2023-05-25T10:02:04.682Z,99917.78
2023-05-25T10:03:07.954Z,99908.19
2023-05-25T10:04:10.566Z,99923.88
2023-05-25T10:05:12.956Z,99928.44
2023-05-25T10:06:16.201Z,99913.06
2023-05-25T10:07:18.871Z,99922.91
2023-05-25T10:08:27.894Z,99922.03
2023-05-25T10:09:31.598Z,99933.34
2023-05-25T10:10:34.116Z,99915.41
2023-05-25T10:11:39.855Z,99922.69
2023-05-25T10:12:45.957Z,99915.22
2023-05-25T10:13:50.267Z,99927.56
2023-05-25T10:14:54.991Z,99920.72
2023-05-25T10:15:58.003Z,99918.19
2023-05-25T10:17:05.334Z,99914.78
2023-05-25T10:18:09.623Z,99918.84
2023-05-25T10:19:22.998Z,99909.34
2023-05-25T10:20:29.332Z,99915.00
2023-05-25T10:21:34.929Z,99918.81
2023-05-25T10:22:54.527Z,99918.84
2023-05-25T10:24:10.031Z,99929.03
2023-05-25T10:25:26.184Z,99925.25
2023-05-25T10:26:33.403Z,99920.75
2023-05-25T10:27:46.876Z,99910.09
2023-05-25T10:28:53.895Z,99920.97
2023-05-25T10:29:57.523Z,99919.13
2023-05-25T10:31:00.240Z,99916.72
2023-05-25T10:32:04.537Z,99910.66
2023-05-25T10:33:07.545Z,99916.69
2023-05-25T10:34:10.033Z,99909.69
2023-05-25T10:35:13.852Z,99921.34
2023-05-25T10:36:18.029Z,99918.97
2023-05-25T10:37:20.735Z,99921.84
2023-05-25T10:38:26.328Z,99918.88
2023-05-25T10:39:29.628Z,99918.97
2023-05-25T10:40:33.994Z,99919.19
2023-05-25T10:41:36.245Z,99918.78
2023-05-25T10:42:39.149Z,99926.50
2023-05-25T10:43:42.438Z,99923.28
2023-05-25T10:44:46.110Z,99917.72
2023-05-25T10:45:48.931Z,99916.72
2023-05-25T10:46:51.319Z,99915.06
2023-05-25T10:47:53.578Z,99912.16
2023-05-25T10:49:02.105Z,99910.94
2023-05-25T10:50:04.718Z,99900.47
2023-05-25T10:51:09.032Z,99916.84
2023-05-25T10:52:19.689Z,99904.28
2023-05-25T10:53:22.222Z,99911.66
2023-05-25T10:54:33.736Z,99911.16
2023-05-25T10:55:44.359Z,99906.81
2023-05-25T10:57:31.740Z,99918.94
2023-05-25T10:58:34.253Z,99898.84
2023-05-25T10:59:40.681Z,99912.13
2023-05-25T11:00:43.688Z,99918.81
2023-05-25T11:01:51.851Z,99915.56
2023-05-25T11:02:55.721Z,99919.69
2023-05-25T11:04:17.386Z,99907.78
2023-05-25T11:05:33.944Z,99913.00
2023-05-25T11:06:40.319Z,99922.75
2023-05-25T11:07:56.490Z,99921.22
2023-05-25T11:09:00.217Z,99927.69
2023-05-25T11:10:03.353Z,99929.47
2023-05-25T11:11:05.660Z,99917.81
2023-05-25T11:12:08.512Z,99927.84
2023-05-25T11:13:23.858Z,99920.53
2023-05-25T11:14:42.206Z,99917.72
2023-05-25T11:15:44.559Z,99930.09
2023-05-25T11:17:08.093Z,99915.50
2023-05-25T11:18:14.781Z,99903.50
2023-05-25T11:19:16.999Z,99925.00
2023-05-25T11:20:26.025Z,99929.06
2023-05-25T11:21:28.834Z,99922.88
2023-05-25T11:22:40.085Z,99921.47
2023-05-25T11:23:54.450Z,99919.34
2023-05-25T11:24:58.932Z,99928.28
2023-05-25T11:26:06.209Z,99918.47
2023-05-25T11:27:08.971Z,99920.66
2023-05-25T11:28:11.916Z,99915.91
2023-05-25T11:29:16.046Z,99907.84
2023-05-25T11:30:18.327Z,99919.47
2023-05-25T11:31:27.102Z,99906.28
2023-05-25T11:32:29.532Z,99917.28
2023-05-25T11:33:32.045Z,99921.72
2023-05-25T11:34:34.295Z,99922.34
2023-05-25T11:35:39.028Z,99910.53
2023-05-25T11:36:42.163Z,99915.66
2023-05-25T11:37:50.699Z,99912.09
2023-05-25T11:39:04.912Z,99909.78
2023-05-25T11:40:09.510Z,99915.13
2023-05-25T11:41:18.790Z,99910.16
2023-05-25T11:42:22.807Z,99915.28
2023-05-25T11:43:26.445Z,99906.56
2023-05-25T11:44:36.314Z,99905.31
2023-05-25T11:45:39.254Z,99908.47
2023-05-25T11:46:43.930Z,99917.69
2023-05-25T11:47:46.223Z,99913.94
2023-05-25T11:48:52.730Z,99915.00
2023-05-25T11:49:55.550Z,99910.84
2023-05-25T11:51:07.184Z,99906.78
2023-05-25T11:52:10.403Z,99912.19
2023-05-25T11:53:12.895Z,99916.78
2023-05-25T11:54:25.656Z,99921.00
2023-05-25T11:55:27.969Z,99906.00
2023-05-25T11:56:35.599Z,99905.00
2023-05-25T11:57:40.179Z,99905.75
2023-05-25T11:58:47.182Z,99909.16
2023-05-25T11:59:54.145Z,99917.97
2023-05-25T12:00:56.334Z,99917.44
2023-05-25T12:02:03.434Z,99915.91
2023-05-25T12:03:05.815Z,99908.28
2023-05-25T12:04:09.928Z,99914.00
2023-05-25T12:05:12.209Z,99924.03
2023-05-25T12:06:33.435Z,99897.66
2023-05-25T12:07:42.550Z,99910.50
2023-05-25T12:08:44.782Z,99896.63
2023-05-25T12:09:47.101Z,99903.44
2023-05-25T12:10:51.173Z,99905.16
2023-05-25T12:11:54.045Z,99906.00
2023-05-25T12:12:58.376Z,99903.41
2023-05-25T12:14:03.524Z,99893.66
2023-05-25T12:15:06.678Z,99899.22
2023-05-25T12:16:08.912Z,99901.34
2023-05-25T12:17:11.291Z,99892.59
2023-05-25T12:18:13.892Z,99887.44
2023-05-25T12:19:16.965Z,99886.94
2023-05-25T12:20:20.271Z,99885.41
2023-05-25T12:21:23.168Z,99892.16
2023-05-25T12:22:25.849Z,99886.84
2023-05-25T12:23:28.119Z,99894.13
2023-05-25T12:24:30.487Z,99888.28
2023-05-25T12:25:46.036Z,99893.22
2023-05-25T12:27:01.948Z,99898.47
2023-05-25T12:28:12.065Z,99899.41
2023-05-25T12:29:14.357Z,99903.97
2023-05-25T12:30:16.835Z,99897.28
2023-05-25T12:31:23.495Z,99891.75
2023-05-25T12:32:26.074Z,99897.53
2023-05-25T12:33:28.271Z,99894.56
2023-05-25T12:34:30.895Z,99891.31
2023-05-25T12:35:47.812Z,99893.59
2023-05-25T12:36:54.478Z,99891.56
2023-05-25T12:38:17.452Z,99889.72
2023-05-25T12:39:31.586Z,99897.78
2023-05-25T12:40:33.782Z,99894.63